sensor_id;sensor_type;location;lat;lon;timestamp;temperature;humidity
22813;DHT22;11573;51.334;3.244;2024-02-21T00:01:33;9.10;99.90
22813;DHT22;11573;51.334;3.244;2024-02-21T00:04:00;9.10;99.90
22813;DHT22;11573;51.334;3.244;2024-02-21T00:06:27;9.10;99.90
22813;DHT22;11573;51.334;3.244;2024-02-21T00:08:54;9.10;99.90
22813;DHT22;11573;51.334;3.244;2024-02-21T00:11:21;9.10;99.90
22813;DHT22;11573;51.334;3.244;2024-02-21T00:13:49;9.20;99.90
22813;DHT22;11573;51.334;3.244;2024-02-21T00:16:17;9.20;99.90
22813;DHT22;11573;51.334;3.244;2024-02-21T00:18:44;9.20;99.90
22813;DHT22;11573;51.334;3.244;2024-02-21T00:21:11;9.20;99.90
22813;DHT22;11573;51.334;3.244;2024-02-21T00:23:45;9.20;99.90
22813;DHT22;11573;51.334;3.244;2024-02-21T00:26:13;9.20;99.90
22813;DHT22;11573;51.334;3.244;2024-02-21T00:28:40;9.20;99.90
22813;DHT22;11573;51.334;3.244;2024-02-21T00:31:07;9.20;99.90
22813;DHT22;11573;51.334;3.244;2024-02-21T00:33:34;9.20;99.90
22813;DHT22;11573;51.334;3.244;2024-02-21T00:36:01;9.20;99.90
22813;DHT22;11573;51.334;3.244;2024-02-21T00:38:28;9.20;99.90
22813;DHT22;11573;51.334;3.244;2024-02-21T00:40:55;9.20;99.90
22813;DHT22;11573;51.334;3.244;2024-02-21T00:43:23;9.20;99.90
22813;DHT22;11573;51.334;3.244;2024-02-21T00:45:51;9.20;99.90
22813;DHT22;11573;51.334;3.244;2024-02-21T00:48:18;9.20;99.90
22813;DHT22;11573;51.334;3.244;2024-02-21T00:50:45;9.20;99.90
22813;DHT22;11573;51.334;3.244;2024-02-21T00:53:12;9.30;99.90
22813;DHT22;11573;51.334;3.244;2024-02-21T00:55:39;9.20;99.90
22813;DHT22;11573;51.334;3.244;2024-02-21T00:58:07;9.30;99.90
22813;DHT22;11573;51.334;3.244;2024-02-21T01:00:34;9.20;99.90
22813;DHT22;11573;51.334;3.244;2024-02-21T01:03:01;9.20;99.90
22813;DHT22;11573;51.334;3.244;2024-02-21T01:05:29;9.20;99.90
22813;DHT22;11573;51.334;3.244;2024-02-21T01:07:56;9.20;99.90
22813;DHT22;11573;51.334;3.244;2024-02-21T01:10:23;9.20;99.90
22813;DHT22;11573;51.334;3.244;2024-02-21T01:12:50;9.20;99.90
22813;DHT22;11573;51.334;3.244;2024-02-21T01:15:18;9.20;99.90
22813;DHT22;11573;51.334;3.244;2024-02-21T01:17:45;9.20;99.90
22813;DHT22;11573;51.334;3.244;2024-02-21T01:20:12;9.20;99.90
22813;DHT22;11573;51.334;3.244;2024-02-21T01:22:39;9.20;99.90
22813;DHT22;11573;51.334;3.244;2024-02-21T01:25:07;9.30;99.90
22813;DHT22;11573;51.334;3.244;2024-02-21T01:27:34;9.30;99.90
22813;DHT22;11573;51.334;3.244;2024-02-21T01:30:01;9.40;99.90
22813;DHT22;11573;51.334;3.244;2024-02-21T01:32:28;9.40;99.90
22813;DHT22;11573;51.334;3.244;2024-02-21T01:34:55;9.40;99.90
22813;DHT22;11573;51.334;3.244;2024-02-21T01:37:22;9.40;99.90
22813;DHT22;11573;51.334;3.244;2024-02-21T01:39:49;9.50;99.90
22813;DHT22;11573;51.334;3.244;2024-02-21T01:42:17;9.40;99.90
22813;DHT22;11573;51.334;3.244;2024-02-21T01:44:44;9.50;99.90
22813;DHT22;11573;51.334;3.244;2024-02-21T01:47:12;9.50;99.90
22813;DHT22;11573;51.334;3.244;2024-02-21T01:49:41;9.50;99.90
22813;DHT22;11573;51.334;3.244;2024-02-21T01:52:08;9.40;99.90
22813;DHT22;11573;51.334;3.244;2024-02-21T01:54:36;9.40;99.90
22813;DHT22;11573;51.334;3.244;2024-02-21T01:57:03;9.50;99.90
22813;DHT22;11573;51.334;3.244;2024-02-21T01:59:31;9.50;99.90
22813;DHT22;11573;51.334;3.244;2024-02-21T02:01:58;9.50;99.90
22813;DHT22;11573;51.334;3.244;2024-02-21T02:04:26;9.40;99.90
22813;DHT22;11573;51.334;3.244;2024-02-21T02:06:55;9.40;99.90
22813;DHT22;11573;51.334;3.244;2024-02-21T02:09:22;9.40;99.90
22813;DHT22;11573;51.334;3.244;2024-02-21T02:11:49;9.40;99.90
22813;DHT22;11573;51.334;3.244;2024-02-21T02:14:17;9.40;99.90
22813;DHT22;11573;51.334;3.244;2024-02-21T02:16:46;9.40;99.90
22813;DHT22;11573;51.334;3.244;2024-02-21T02:19:14;9.40;99.90
22813;DHT22;11573;51.334;3.244;2024-02-21T02:21:50;9.40;99.90
22813;DHT22;11573;51.334;3.244;2024-02-21T02:24:24;9.40;99.90
22813;DHT22;11573;51.334;3.244;2024-02-21T02:26:52;9.40;99.90
22813;DHT22;11573;51.334;3.244;2024-02-21T02:29:19;9.40;99.90
22813;DHT22;11573;51.334;3.244;2024-02-21T02:31:46;9.40;99.90
22813;DHT22;11573;51.334;3.244;2024-02-21T02:34:13;9.40;99.90
22813;DHT22;11573;51.334;3.244;2024-02-21T02:36:41;9.40;99.90
22813;DHT22;11573;51.334;3.244;2024-02-21T02:39:07;9.40;99.90
22813;DHT22;11573;51.334;3.244;2024-02-21T02:41:36;9.40;99.90
22813;DHT22;11573;51.334;3.244;2024-02-21T02:44:03;9.40;99.90
22813;DHT22;11573;51.334;3.244;2024-02-21T02:46:30;9.40;99.90
22813;DHT22;11573;51.334;3.244;2024-02-21T02:48:57;9.40;99.90
22813;DHT22;11573;51.334;3.244;2024-02-21T02:51:24;9.40;99.90
22813;DHT22;11573;51.334;3.244;2024-02-21T02:53:51;9.40;99.90
22813;DHT22;11573;51.334;3.244;2024-02-21T02:56:18;9.40;99.90
22813;DHT22;11573;51.334;3.244;2024-02-21T02:58:45;9.40;99.90
22813;DHT22;11573;51.334;3.244;2024-02-21T03:01:13;9.40;99.90
22813;DHT22;11573;51.334;3.244;2024-02-21T03:03:40;9.40;99.90
22813;DHT22;11573;51.334;3.244;2024-02-21T03:06:07;9.40;99.90
22813;DHT22;11573;51.334;3.244;2024-02-21T03:08:35;9.40;99.90
22813;DHT22;11573;51.334;3.244;2024-02-21T03:11:02;9.40;99.90
22813;DHT22;11573;51.334;3.244;2024-02-21T03:13:29;9.50;99.90
22813;DHT22;11573;51.334;3.244;2024-02-21T03:15:56;9.50;99.90
22813;DHT22;11573;51.334;3.244;2024-02-21T03:18:23;9.50;99.90
22813;DHT22;11573;51.334;3.244;2024-02-21T03:20:50;9.50;99.90
22813;DHT22;11573;51.334;3.244;2024-02-21T03:23:17;9.60;99.90
22813;DHT22;11573;51.334;3.244;2024-02-21T03:25:44;9.50;99.90
22813;DHT22;11573;51.334;3.244;2024-02-21T03:28:11;9.50;99.90
22813;DHT22;11573;51.334;3.244;2024-02-21T03:30:39;9.60;99.90
22813;DHT22;11573;51.334;3.244;2024-02-21T03:33:06;9.60;99.90
22813;DHT22;11573;51.334;3.244;2024-02-21T03:35:33;9.60;99.90
22813;DHT22;11573;51.334;3.244;2024-02-21T03:38:00;9.50;99.90
22813;DHT22;11573;51.334;3.244;2024-02-21T03:40:27;9.60;99.90
22813;DHT22;11573;51.334;3.244;2024-02-21T03:42:54;9.60;99.90
22813;DHT22;11573;51.334;3.244;2024-02-21T03:45:21;9.60;99.90
22813;DHT22;11573;51.334;3.244;2024-02-21T03:47:48;9.60;99.90
22813;DHT22;11573;51.334;3.244;2024-02-21T03:50:15;9.70;99.90
22813;DHT22;11573;51.334;3.244;2024-02-21T03:52:42;9.60;99.90
22813;DHT22;11573;51.334;3.244;2024-02-21T03:55:09;9.60;99.90
22813;DHT22;11573;51.334;3.244;2024-02-21T03:57:37;9.60;99.90
22813;DHT22;11573;51.334;3.244;2024-02-21T04:00:05;9.70;99.90
22813;DHT22;11573;51.334;3.244;2024-02-21T04:02:37;9.70;99.90
22813;DHT22;11573;51.334;3.244;2024-02-21T04:05:04;9.60;99.90
22813;DHT22;11573;51.334;3.244;2024-02-21T04:07:33;9.70;99.90
22813;DHT22;11573;51.334;3.244;2024-02-21T04:10:00;9.60;99.90
22813;DHT22;11573;51.334;3.244;2024-02-21T04:12:27;9.60;99.90
22813;DHT22;11573;51.334;3.244;2024-02-21T04:14:54;9.60;99.90
22813;DHT22;11573;51.334;3.244;2024-02-21T04:17:21;9.60;99.90
22813;DHT22;11573;51.334;3.244;2024-02-21T04:19:48;9.60;99.90
22813;DHT22;11573;51.334;3.244;2024-02-21T04:22:15;9.50;99.90
22813;DHT22;11573;51.334;3.244;2024-02-21T04:24:42;9.50;99.90
22813;DHT22;11573;51.334;3.244;2024-02-21T04:27:09;9.50;99.90
22813;DHT22;11573;51.334;3.244;2024-02-21T04:29:36;9.50;99.90
22813;DHT22;11573;51.334;3.244;2024-02-21T04:32:03;9.50;99.90
22813;DHT22;11573;51.334;3.244;2024-02-21T04:34:31;9.50;99.90
22813;DHT22;11573;51.334;3.244;2024-02-21T04:36:59;9.50;99.90
22813;DHT22;11573;51.334;3.244;2024-02-21T04:39:26;9.40;99.90
22813;DHT22;11573;51.334;3.244;2024-02-21T04:41:53;9.40;99.90
22813;DHT22;11573;51.334;3.244;2024-02-21T04:44:20;9.40;99.90
22813;DHT22;11573;51.334;3.244;2024-02-21T04:46:49;9.40;99.90
22813;DHT22;11573;51.334;3.244;2024-02-21T04:49:16;9.40;99.90
22813;DHT22;11573;51.334;3.244;2024-02-21T04:51:43;9.40;99.90
22813;DHT22;11573;51.334;3.244;2024-02-21T04:54:10;9.40;99.90
22813;DHT22;11573;51.334;3.244;2024-02-21T04:56:37;9.40;99.90
22813;DHT22;11573;51.334;3.244;2024-02-21T04:59:04;9.40;99.90
22813;DHT22;11573;51.334;3.244;2024-02-21T05:01:31;9.40;99.90
22813;DHT22;11573;51.334;3.244;2024-02-21T05:03:58;9.50;99.90
22813;DHT22;11573;51.334;3.244;2024-02-21T05:06:25;9.50;99.90
22813;DHT22;11573;51.334;3.244;2024-02-21T05:08:52;9.50;99.90
22813;DHT22;11573;51.334;3.244;2024-02-21T05:11:19;9.50;99.90
22813;DHT22;11573;51.334;3.244;2024-02-21T05:13:47;9.50;99.90
22813;DHT22;11573;51.334;3.244;2024-02-21T05:16:14;9.40;99.90
22813;DHT22;11573;51.334;3.244;2024-02-21T05:18:41;9.50;99.90
22813;DHT22;11573;51.334;3.244;2024-02-21T05:21:09;9.40;99.90
22813;DHT22;11573;51.334;3.244;2024-02-21T05:23:36;9.40;99.90
22813;DHT22;11573;51.334;3.244;2024-02-21T05:26:03;9.40;99.90
22813;DHT22;11573;51.334;3.244;2024-02-21T05:28:31;9.40;99.90
22813;DHT22;11573;51.334;3.244;2024-02-21T05:30:58;9.40;99.90
22813;DHT22;11573;51.334;3.244;2024-02-21T05:33:25;9.40;99.90
22813;DHT22;11573;51.334;3.244;2024-02-21T05:35:52;9.40;99.90
22813;DHT22;11573;51.334;3.244;2024-02-21T05:38:19;9.40;99.90
22813;DHT22;11573;51.334;3.244;2024-02-21T05:40:46;9.40;99.90
22813;DHT22;11573;51.334;3.244;2024-02-21T05:43:13;9.40;99.90
22813;DHT22;11573;51.334;3.244;2024-02-21T05:45:40;9.40;99.90
22813;DHT22;11573;51.334;3.244;2024-02-21T05:48:07;9.40;99.90
22813;DHT22;11573;51.334;3.244;2024-02-21T05:50:35;9.40;99.90
22813;DHT22;11573;51.334;3.244;2024-02-21T05:53:02;9.50;99.90
22813;DHT22;11573;51.334;3.244;2024-02-21T05:55:30;9.40;99.90
22813;DHT22;11573;51.334;3.244;2024-02-21T05:57:57;9.40;99.90
22813;DHT22;11573;51.334;3.244;2024-02-21T06:00:24;9.50;99.90
22813;DHT22;11573;51.334;3.244;2024-02-21T06:02:51;9.50;99.90
22813;DHT22;11573;51.334;3.244;2024-02-21T06:05:18;9.50;99.90
22813;DHT22;11573;51.334;3.244;2024-02-21T06:07:45;9.50;99.90
22813;DHT22;11573;51.334;3.244;2024-02-21T06:10:12;9.50;99.90
22813;DHT22;11573;51.334;3.244;2024-02-21T06:12:40;9.50;99.90
22813;DHT22;11573;51.334;3.244;2024-02-21T06:15:07;9.60;99.90
22813;DHT22;11573;51.334;3.244;2024-02-21T06:17:35;9.60;99.90
22813;DHT22;11573;51.334;3.244;2024-02-21T06:20:02;9.50;99.90
22813;DHT22;11573;51.334;3.244;2024-02-21T06:22:30;9.50;99.90
22813;DHT22;11573;51.334;3.244;2024-02-21T06:24:58;9.60;99.90
22813;DHT22;11573;51.334;3.244;2024-02-21T06:27:24;9.60;99.90
22813;DHT22;11573;51.334;3.244;2024-02-21T06:29:52;9.60;99.90
22813;DHT22;11573;51.334;3.244;2024-02-21T06:32:19;9.60;99.90
22813;DHT22;11573;51.334;3.244;2024-02-21T06:34:46;9.50;99.90
22813;DHT22;11573;51.334;3.244;2024-02-21T06:37:13;9.60;99.90
22813;DHT22;11573;51.334;3.244;2024-02-21T06:39:40;9.60;99.90
22813;DHT22;11573;51.334;3.244;2024-02-21T06:42:07;9.60;99.90
22813;DHT22;11573;51.334;3.244;2024-02-21T06:44:34;9.60;99.90
22813;DHT22;11573;51.334;3.244;2024-02-21T06:47:07;9.60;99.90
22813;DHT22;11573;51.334;3.244;2024-02-21T06:49:37;9.70;99.90
22813;DHT22;11573;51.334;3.244;2024-02-21T06:52:05;9.70;99.90
22813;DHT22;11573;51.334;3.244;2024-02-21T06:54:32;9.60;99.90
22813;DHT22;11573;51.334;3.244;2024-02-21T06:56:59;9.70;99.90
22813;DHT22;11573;51.334;3.244;2024-02-21T06:59:26;9.70;99.90
22813;DHT22;11573;51.334;3.244;2024-02-21T07:01:54;9.60;99.90
22813;DHT22;11573;51.334;3.244;2024-02-21T07:04:24;9.60;99.90
22813;DHT22;11573;51.334;3.244;2024-02-21T07:06:51;9.60;99.90
22813;DHT22;11573;51.334;3.244;2024-02-21T07:09:18;9.60;99.90
22813;DHT22;11573;51.334;3.244;2024-02-21T07:11:45;9.60;99.90
22813;DHT22;11573;51.334;3.244;2024-02-21T07:14:14;9.60;99.90
22813;DHT22;11573;51.334;3.244;2024-02-21T07:16:41;9.60;99.90
22813;DHT22;11573;51.334;3.244;2024-02-21T07:19:08;9.60;99.90
22813;DHT22;11573;51.334;3.244;2024-02-21T07:21:35;9.60;99.90
22813;DHT22;11573;51.334;3.244;2024-02-21T07:24:04;9.60;99.90
22813;DHT22;11573;51.334;3.244;2024-02-21T07:26:32;9.60;99.90
22813;DHT22;11573;51.334;3.244;2024-02-21T07:28:59;9.60;99.90
22813;DHT22;11573;51.334;3.244;2024-02-21T07:31:26;9.60;99.90
22813;DHT22;11573;51.334;3.244;2024-02-21T07:33:53;9.60;99.90
22813;DHT22;11573;51.334;3.244;2024-02-21T07:36:29;9.60;99.90
22813;DHT22;11573;51.334;3.244;2024-02-21T07:38:59;9.60;99.90
22813;DHT22;11573;51.334;3.244;2024-02-21T07:41:26;9.60;99.90
22813;DHT22;11573;51.334;3.244;2024-02-21T07:43:55;9.70;99.90
22813;DHT22;11573;51.334;3.244;2024-02-21T07:46:22;9.70;99.90
22813;DHT22;11573;51.334;3.244;2024-02-21T07:48:50;9.70;99.90
22813;DHT22;11573;51.334;3.244;2024-02-21T07:51:17;9.70;99.90
22813;DHT22;11573;51.334;3.244;2024-02-21T07:53:45;9.80;99.90
22813;DHT22;11573;51.334;3.244;2024-02-21T07:56:13;9.80;99.90
22813;DHT22;11573;51.334;3.244;2024-02-21T07:58:41;9.80;99.90
22813;DHT22;11573;51.334;3.244;2024-02-21T08:01:08;9.90;99.90
22813;DHT22;11573;51.334;3.244;2024-02-21T08:03:36;9.90;99.90
22813;DHT22;11573;51.334;3.244;2024-02-21T08:06:03;9.90;99.90
22813;DHT22;11573;51.334;3.244;2024-02-21T08:08:30;9.90;99.90
22813;DHT22;11573;51.334;3.244;2024-02-21T08:10:57;9.90;99.90
22813;DHT22;11573;51.334;3.244;2024-02-21T08:13:24;9.90;99.90
22813;DHT22;11573;51.334;3.244;2024-02-21T08:15:52;9.80;99.90
22813;DHT22;11573;51.334;3.244;2024-02-21T08:18:19;9.90;99.90
22813;DHT22;11573;51.334;3.244;2024-02-21T08:20:46;9.90;99.90
22813;DHT22;11573;51.334;3.244;2024-02-21T08:23:16;9.90;99.90
22813;DHT22;11573;51.334;3.244;2024-02-21T08:25:44;9.80;99.90
22813;DHT22;11573;51.334;3.244;2024-02-21T08:28:11;9.90;99.90
22813;DHT22;11573;51.334;3.244;2024-02-21T08:30:39;9.90;99.90
22813;DHT22;11573;51.334;3.244;2024-02-21T08:33:06;10.00;99.90
22813;DHT22;11573;51.334;3.244;2024-02-21T08:35:34;9.90;99.90
22813;DHT22;11573;51.334;3.244;2024-02-21T08:38:01;9.90;99.90
22813;DHT22;11573;51.334;3.244;2024-02-21T08:40:28;9.90;99.90
22813;DHT22;11573;51.334;3.244;2024-02-21T08:42:55;9.90;99.90
22813;DHT22;11573;51.334;3.244;2024-02-21T08:45:22;10.00;99.90
22813;DHT22;11573;51.334;3.244;2024-02-21T08:47:49;10.00;99.90
22813;DHT22;11573;51.334;3.244;2024-02-21T08:50:16;10.00;99.90
22813;DHT22;11573;51.334;3.244;2024-02-21T08:52:54;10.10;99.90
22813;DHT22;11573;51.334;3.244;2024-02-21T08:55:22;10.10;99.90
22813;DHT22;11573;51.334;3.244;2024-02-21T08:57:49;10.10;99.90
22813;DHT22;11573;51.334;3.244;2024-02-21T09:00:17;10.20;99.90
22813;DHT22;11573;51.334;3.244;2024-02-21T09:02:44;10.30;99.90
22813;DHT22;11573;51.334;3.244;2024-02-21T09:05:11;10.30;99.90
22813;DHT22;11573;51.334;3.244;2024-02-21T09:07:39;10.30;99.90
22813;DHT22;11573;51.334;3.244;2024-02-21T09:10:07;10.30;99.90
22813;DHT22;11573;51.334;3.244;2024-02-21T09:12:34;10.30;99.90
22813;DHT22;11573;51.334;3.244;2024-02-21T09:15:01;10.30;99.90
22813;DHT22;11573;51.334;3.244;2024-02-21T09:17:28;10.40;99.90
22813;DHT22;11573;51.334;3.244;2024-02-21T09:19:56;10.40;99.90
22813;DHT22;11573;51.334;3.244;2024-02-21T09:22:26;10.40;99.90
22813;DHT22;11573;51.334;3.244;2024-02-21T09:24:54;10.40;99.90
22813;DHT22;11573;51.334;3.244;2024-02-21T09:27:21;10.40;99.90
22813;DHT22;11573;51.334;3.244;2024-02-21T09:29:49;10.40;99.90
22813;DHT22;11573;51.334;3.244;2024-02-21T09:32:16;10.30;99.90
22813;DHT22;11573;51.334;3.244;2024-02-21T09:34:43;10.30;99.90
22813;DHT22;11573;51.334;3.244;2024-02-21T09:37:11;10.40;99.90
22813;DHT22;11573;51.334;3.244;2024-02-21T09:39:37;10.50;99.90
22813;DHT22;11573;51.334;3.244;2024-02-21T09:42:11;10.60;99.90
22813;DHT22;11573;51.334;3.244;2024-02-21T09:44:38;10.70;99.90
22813;DHT22;11573;51.334;3.244;2024-02-21T09:47:19;10.80;99.90
22813;DHT22;11573;51.334;3.244;2024-02-21T09:49:46;10.90;99.90
22813;DHT22;11573;51.334;3.244;2024-02-21T09:52:15;10.90;99.90
22813;DHT22;11573;51.334;3.244;2024-02-21T09:54:42;10.90;99.90
22813;DHT22;11573;51.334;3.244;2024-02-21T09:57:12;10.70;99.90
22813;DHT22;11573;51.334;3.244;2024-02-21T09:59:40;10.80;99.90
22813;DHT22;11573;51.334;3.244;2024-02-21T10:02:09;10.70;99.90
22813;DHT22;11573;51.334;3.244;2024-02-21T10:04:36;10.80;99.90
22813;DHT22;11573;51.334;3.244;2024-02-21T10:07:03;11.00;99.90
22813;DHT22;11573;51.334;3.244;2024-02-21T10:09:31;11.10;99.90
22813;DHT22;11573;51.334;3.244;2024-02-21T10:12:10;11.00;99.90
22813;DHT22;11573;51.334;3.244;2024-02-21T10:14:39;11.20;99.90
22813;DHT22;11573;51.334;3.244;2024-02-21T10:17:06;11.40;99.90
22813;DHT22;11573;51.334;3.244;2024-02-21T10:19:38;11.60;99.90
22813;DHT22;11573;51.334;3.244;2024-02-21T10:22:08;11.70;99.90
22813;DHT22;11573;51.334;3.244;2024-02-21T10:24:37;11.80;99.90
22813;DHT22;11573;51.334;3.244;2024-02-21T10:27:06;11.80;99.90
22813;DHT22;11573;51.334;3.244;2024-02-21T10:29:41;11.70;99.90
22813;DHT22;11573;51.334;3.244;2024-02-21T10:32:29;11.70;99.90
22813;DHT22;11573;51.334;3.244;2024-02-21T10:35:02;11.80;99.90
22813;DHT22;11573;51.334;3.244;2024-02-21T10:37:31;11.70;99.90
22813;DHT22;11573;51.334;3.244;2024-02-21T10:39:59;11.70;99.90
22813;DHT22;11573;51.334;3.244;2024-02-21T10:42:29;11.70;99.90
22813;DHT22;11573;51.334;3.244;2024-02-21T10:45:01;11.70;99.90
22813;DHT22;11573;51.334;3.244;2024-02-21T10:47:32;11.70;99.90
22813;DHT22;11573;51.334;3.244;2024-02-21T10:50:03;11.70;99.90
22813;DHT22;11573;51.334;3.244;2024-02-21T10:53:06;11.40;99.90
22813;DHT22;11573;51.334;3.244;2024-02-21T10:55:39;11.60;99.90
22813;DHT22;11573;51.334;3.244;2024-02-21T10:58:09;11.90;99.90
22813;DHT22;11573;51.334;3.244;2024-02-21T11:00:37;11.80;99.90
22813;DHT22;11573;51.334;3.244;2024-02-21T11:03:05;11.60;99.90
22813;DHT22;11573;51.334;3.244;2024-02-21T11:05:33;11.40;99.90
22813;DHT22;11573;51.334;3.244;2024-02-21T11:08:01;11.20;99.90
22813;DHT22;11573;51.334;3.244;2024-02-21T11:10:28;11.20;99.90
22813;DHT22;11573;51.334;3.244;2024-02-21T11:13:08;11.40;99.90
22813;DHT22;11573;51.334;3.244;2024-02-21T11:15:35;11.60;99.90
22813;DHT22;11573;51.334;3.244;2024-02-21T11:18:03;11.80;99.90
22813;DHT22;11573;51.334;3.244;2024-02-21T11:20:40;11.90;99.90
22813;DHT22;11573;51.334;3.244;2024-02-21T11:23:07;12.00;99.90
22813;DHT22;11573;51.334;3.244;2024-02-21T11:25:34;11.90;99.90
22813;DHT22;11573;51.334;3.244;2024-02-21T11:28:05;12.00;99.90
22813;DHT22;11573;51.334;3.244;2024-02-21T11:30:37;12.00;99.90
22813;DHT22;11573;51.334;3.244;2024-02-21T11:33:08;12.00;99.90
22813;DHT22;11573;51.334;3.244;2024-02-21T11:35:36;12.00;99.90
22813;DHT22;11573;51.334;3.244;2024-02-21T11:38:13;11.70;99.90
22813;DHT22;11573;51.334;3.244;2024-02-21T11:40:45;11.60;99.90
22813;DHT22;11573;51.334;3.244;2024-02-21T11:43:13;11.60;99.90
22813;DHT22;11573;51.334;3.244;2024-02-21T11:45:40;11.50;99.90
22813;DHT22;11573;51.334;3.244;2024-02-21T11:48:07;11.60;99.90
22813;DHT22;11573;51.334;3.244;2024-02-21T11:50:35;11.60;99.90
22813;DHT22;11573;51.334;3.244;2024-02-21T11:53:03;11.70;99.90
22813;DHT22;11573;51.334;3.244;2024-02-21T11:55:30;11.60;99.90
22813;DHT22;11573;51.334;3.244;2024-02-21T11:57:57;11.50;99.90
22813;DHT22;11573;51.334;3.244;2024-02-21T12:00:25;11.50;99.90
22813;DHT22;11573;51.334;3.244;2024-02-21T12:02:52;11.60;99.90
22813;DHT22;11573;51.334;3.244;2024-02-21T12:05:19;11.50;99.90
22813;DHT22;11573;51.334;3.244;2024-02-21T12:07:47;11.20;99.90
22813;DHT22;11573;51.334;3.244;2024-02-21T12:10:14;11.20;99.90
22813;DHT22;11573;51.334;3.244;2024-02-21T12:12:41;11.30;99.90
22813;DHT22;11573;51.334;3.244;2024-02-21T12:15:08;11.10;99.90
22813;DHT22;11573;51.334;3.244;2024-02-21T12:17:37;11.20;99.90
22813;DHT22;11573;51.334;3.244;2024-02-21T12:20:05;11.20;99.90
22813;DHT22;11573;51.334;3.244;2024-02-21T12:22:36;11.20;99.90
22813;DHT22;11573;51.334;3.244;2024-02-21T12:25:04;11.20;99.90
22813;DHT22;11573;51.334;3.244;2024-02-21T12:27:42;11.10;99.90
22813;DHT22;11573;51.334;3.244;2024-02-21T12:30:09;11.20;99.90
22813;DHT22;11573;51.334;3.244;2024-02-21T12:32:36;11.30;99.90
22813;DHT22;11573;51.334;3.244;2024-02-21T12:35:04;11.40;99.90
22813;DHT22;11573;51.334;3.244;2024-02-21T12:37:31;11.50;99.90
22813;DHT22;11573;51.334;3.244;2024-02-21T12:40:01;11.40;99.90
22813;DHT22;11573;51.334;3.244;2024-02-21T12:42:28;11.30;99.90
22813;DHT22;11573;51.334;3.244;2024-02-21T12:44:55;11.30;99.90
22813;DHT22;11573;51.334;3.244;2024-02-21T12:47:22;11.30;99.90
22813;DHT22;11573;51.334;3.244;2024-02-21T12:49:51;11.40;99.90
22813;DHT22;11573;51.334;3.244;2024-02-21T12:52:19;11.40;99.90
22813;DHT22;11573;51.334;3.244;2024-02-21T12:54:46;11.30;99.90
22813;DHT22;11573;51.334;3.244;2024-02-21T12:57:14;11.20;99.90
22813;DHT22;11573;51.334;3.244;2024-02-21T12:59:41;11.10;99.90
22813;DHT22;11573;51.334;3.244;2024-02-21T13:02:08;11.10;99.90
22813;DHT22;11573;51.334;3.244;2024-02-21T13:04:35;11.00;99.90
22813;DHT22;11573;51.334;3.244;2024-02-21T13:07:02;10.90;99.90
22813;DHT22;11573;51.334;3.244;2024-02-21T13:09:29;10.80;99.90
22813;DHT22;11573;51.334;3.244;2024-02-21T13:11:56;10.80;99.90
22813;DHT22;11573;51.334;3.244;2024-02-21T13:14:23;10.80;99.90
22813;DHT22;11573;51.334;3.244;2024-02-21T13:16:52;10.70;99.90
22813;DHT22;11573;51.334;3.244;2024-02-21T13:19:19;10.60;99.90
22813;DHT22;11573;51.334;3.244;2024-02-21T13:21:47;10.60;99.90
22813;DHT22;11573;51.334;3.244;2024-02-21T13:24:14;10.60;99.90
22813;DHT22;11573;51.334;3.244;2024-02-21T13:26:41;10.60;99.90
22813;DHT22;11573;51.334;3.244;2024-02-21T13:29:08;10.50;99.90
22813;DHT22;11573;51.334;3.244;2024-02-21T13:31:35;10.50;99.90
22813;DHT22;11573;51.334;3.244;2024-02-21T13:34:02;10.60;99.90
22813;DHT22;11573;51.334;3.244;2024-02-21T13:36:30;10.60;99.90
22813;DHT22;11573;51.334;3.244;2024-02-21T13:38:57;10.50;99.90
22813;DHT22;11573;51.334;3.244;2024-02-21T13:41:24;10.60;99.90
22813;DHT22;11573;51.334;3.244;2024-02-21T13:43:51;10.60;99.90
22813;DHT22;11573;51.334;3.244;2024-02-21T13:46:18;10.50;99.90
22813;DHT22;11573;51.334;3.244;2024-02-21T13:48:46;10.40;99.90
22813;DHT22;11573;51.334;3.244;2024-02-21T13:51:13;10.40;99.90
22813;DHT22;11573;51.334;3.244;2024-02-21T13:53:41;10.40;99.90
22813;DHT22;11573;51.334;3.244;2024-02-21T13:56:08;10.40;99.90
22813;DHT22;11573;51.334;3.244;2024-02-21T13:58:36;10.40;99.90
22813;DHT22;11573;51.334;3.244;2024-02-21T14:01:04;10.30;99.90
22813;DHT22;11573;51.334;3.244;2024-02-21T14:03:31;10.30;99.90
22813;DHT22;11573;51.334;3.244;2024-02-21T14:05:58;10.30;99.90
22813;DHT22;11573;51.334;3.244;2024-02-21T14:08:26;10.30;99.90
22813;DHT22;11573;51.334;3.244;2024-02-21T14:10:54;10.30;99.90
22813;DHT22;11573;51.334;3.244;2024-02-21T14:13:22;10.30;99.90
22813;DHT22;11573;51.334;3.244;2024-02-21T14:15:49;10.20;99.90
22813;DHT22;11573;51.334;3.244;2024-02-21T14:18:17;10.20;99.90
22813;DHT22;11573;51.334;3.244;2024-02-21T14:20:44;10.20;99.90
22813;DHT22;11573;51.334;3.244;2024-02-21T14:23:11;10.10;99.90
22813;DHT22;11573;51.334;3.244;2024-02-21T14:25:39;10.10;99.90
22813;DHT22;11573;51.334;3.244;2024-02-21T14:28:08;10.10;99.90
22813;DHT22;11573;51.334;3.244;2024-02-21T14:30:38;10.10;99.90
22813;DHT22;11573;51.334;3.244;2024-02-21T14:33:05;10.10;99.90
22813;DHT22;11573;51.334;3.244;2024-02-21T14:35:34;10.10;99.90
22813;DHT22;11573;51.334;3.244;2024-02-21T14:38:01;10.10;99.90
22813;DHT22;11573;51.334;3.244;2024-02-21T14:40:28;10.10;99.90
22813;DHT22;11573;51.334;3.244;2024-02-21T14:42:57;10.10;99.90
22813;DHT22;11573;51.334;3.244;2024-02-21T14:45:24;10.10;99.90
22813;DHT22;11573;51.334;3.244;2024-02-21T14:47:51;10.10;99.90
22813;DHT22;11573;51.334;3.244;2024-02-21T14:50:18;10.10;99.90
22813;DHT22;11573;51.334;3.244;2024-02-21T14:52:45;10.10;99.90
22813;DHT22;11573;51.334;3.244;2024-02-21T14:55:13;10.10;99.90
22813;DHT22;11573;51.334;3.244;2024-02-21T14:57:41;10.10;99.90
22813;DHT22;11573;51.334;3.244;2024-02-21T15:00:10;10.10;99.90
22813;DHT22;11573;51.334;3.244;2024-02-21T15:02:38;10.10;99.90
22813;DHT22;11573;51.334;3.244;2024-02-21T15:05:06;10.10;99.90
22813;DHT22;11573;51.334;3.244;2024-02-21T15:07:33;10.10;99.90
22813;DHT22;11573;51.334;3.244;2024-02-21T15:10:01;10.20;99.90
22813;DHT22;11573;51.334;3.244;2024-02-21T15:12:29;10.10;99.90
22813;DHT22;11573;51.334;3.244;2024-02-21T15:14:58;10.10;99.90
22813;DHT22;11573;51.334;3.244;2024-02-21T15:17:26;10.10;99.90
22813;DHT22;11573;51.334;3.244;2024-02-21T15:19:53;10.10;99.90
22813;DHT22;11573;51.334;3.244;2024-02-21T15:22:22;10.20;99.90
22813;DHT22;11573;51.334;3.244;2024-02-21T15:24:50;10.20;99.90
22813;DHT22;11573;51.334;3.244;2024-02-21T15:27:18;10.10;99.90
22813;DHT22;11573;51.334;3.244;2024-02-21T15:29:45;10.10;99.90
22813;DHT22;11573;51.334;3.244;2024-02-21T15:32:12;10.10;99.90
22813;DHT22;11573;51.334;3.244;2024-02-21T15:34:39;10.10;99.90
22813;DHT22;11573;51.334;3.244;2024-02-21T15:37:07;10.10;99.90
22813;DHT22;11573;51.334;3.244;2024-02-21T15:39:34;10.00;99.90
22813;DHT22;11573;51.334;3.244;2024-02-21T15:42:01;10.00;99.90
22813;DHT22;11573;51.334;3.244;2024-02-21T15:44:28;10.00;99.90